LXGBLGKO

Guest
Details From LXGB - Gibraltar
To LGKO - KOS
Flight Number -
Tags decoded
Created
Modified
Stats Distance 1,618 nm / 2,996 km
Max Altitude 0 ft / 0 m
Waypoints 10
Social Downloads 0
Likes 0
Share VATSIM

Download

Looking for another format? Having issues loading an existing format? Contact us
Advertisement - Login to hide

Notes

Requested: LXGB AMR ALT IBA MJV MHN ORF RCA KAM LGKO

Route

LXGB AMR ALT IBA MJV MHN ORF RCA KAM LGKO

ID Type Via Altitude Latitude Longitude Leg Dist Tot Dist Heading (true) Name
O LXGB APT - 0 ft / 0 m 36.15121˚ -5.34966˚ - 0 nm - Gibraltar
AMR VOR - 0 ft / 0 m 36.83317˚ -2.25942˚ 154 nm 154 nm 74° / 76° ALMERIA VOR-DME
ALT VOR - 0 ft / 0 m 38.26828˚ -0.57012˚ 117 nm 272 nm 43° / 44° ALICANTE VOR-DME
IBA VOR - 0 ft / 0 m 38.86834˚ 1.36591˚ 97 nm 370 nm 68° / 69° IBIZA VOR-DME
MJV VOR - 0 ft / 0 m 39.43519˚ 2.75829˚ 73 nm 443 nm 62° / 63° PALMA DE MALLORCA VOR-DME
MHN VOR - 0 ft / 0 m 39.86351˚ 4.21719˚ 72 nm 515 nm 69° / 70° MENORCA VOR-DME
ORF NDB - 0 ft / 0 m 39.89667˚ 8.64528˚ 204 nm 719 nm 88° / 91° ORISTANO NDB
RCA VOR - 0 ft / 0 m 38.07610˚ 15.64527˚ 344 nm 1064 nm 106° / 111° REGGIO CALABRIA VOR-DME
KAM VOR - 0 ft / 0 m 37.06643˚ 22.02391˚ 309 nm 1373 nm 99° / 103° KALAMATA VOR-DME
O LGKO APT - 0 ft / 0 m 36.79440˚ 27.09076˚ 243 nm 1617 nm 92° / 95° KOS

Altitude Profile

Advertisement - Login to hide

Weather


0- 5 10 15 20 25 30 35+ Temperature / ° C

Clouds and Precipitation
Forecast for 2017-12-16 18:00 UTC. Updated 2 hours ago

Ground ~20,000 ft ~40,000 ft Winds

LXGB

Details ICAO LXGB (GIB)
Name Gibraltar
Region Gibralter
Timezone Europe/Gibraltar (UTC+1.0)
Stats Elevation 15 ft / 5 m (AMSL)
Location 36.151209° -5.349664°
Runways 1
Magnetic Variation 1.122° W

METAR

LXGB 161450Z 10002KT 9999 FEW025 16/10 Q1018 NOSIG

Decode

TAF

Not found

Departure Runways

ID Width Length Bearing (true) Bearing (mag) Surface Threshold Offset Overrun Length
27 151 ft / 46 m 5,992 ft / 1,826 m 267.56° 268.68° Asphalt 367 ft / 112 m 89 ft / 27 m
9 151 ft / 46 m 5,992 ft / 1,826 m 87.54° 88.66° Asphalt 299 ft / 91 m 52 ft / 16 m

LGKO

Details ICAO LGKO (KGS)
Name KOS
Region Greece
Timezone Europe/Athens (UTC+2.0)
Stats Elevation 412 ft / 126 m (AMSL)
Location 36.794403° 27.090764°
Runways 1
Magnetic Variation 4.724° E

METAR

LGKO 161450Z 17015KT 9999 SCT018 17/14 Q1016

Decode

TAF

TAF LGKO 161100Z 1612/1712 15015KT 9999 FEW018 SCT040 PROB30 TEMPO 1615/1624 5000 RA SCT018 BKN040 PROB30 TEMPO 1618/1622 3000 TSRA SCT012 FEW018CB BKN040 BECMG 1616/1618 17020G30KT BECMG 1620/1622 18025G35KT

Decode

Destination Runways

ID Width Length Bearing (true) Bearing (mag) Surface Threshold Offset Overrun Length
14 148 ft / 45 m 7,923 ft / 2,415 m 148.29° 143.57° Asphalt 0 ft / 0 m 240 ft / 73 m
32 148 ft / 45 m 7,923 ft / 2,415 m 328.30° 323.58° Asphalt 0 ft / 0 m 205 ft / 62 m